createdAt,value
2023-04-29T00:03:34.595Z,52.35
2023-04-29T00:06:03.924Z,51.95
2023-04-29T00:08:32.400Z,51.83
2023-04-29T00:11:01.133Z,51.87
2023-04-29T00:13:30.208Z,51.81
2023-04-29T00:15:59.046Z,51.45
2023-04-29T00:18:27.838Z,51.31
2023-04-29T00:20:57.385Z,51.24
2023-04-29T00:23:26.065Z,51.11
2023-04-29T00:25:54.450Z,51.41
2023-04-29T00:28:22.842Z,51.05
2023-04-29T00:30:53.376Z,50.97
2023-04-29T00:33:22.913Z,50.75
2023-04-29T00:35:51.649Z,50.25
2023-04-29T00:38:19.796Z,49.95
2023-04-29T00:40:48.577Z,49.55
2023-04-29T00:43:16.896Z,49.46
2023-04-29T00:45:45.039Z,49.41
2023-04-29T00:48:13.517Z,49.48
2023-04-29T00:50:42.765Z,49.30
2023-04-29T00:53:13.106Z,49.19
2023-04-29T00:55:42.003Z,49.16
2023-04-29T00:58:10.919Z,49.40
2023-04-29T01:00:41.701Z,49.50
2023-04-29T01:03:11.358Z,49.86
2023-04-29T01:05:41.240Z,50.30
2023-04-29T01:08:29.300Z,50.70
2023-04-29T01:11:10.192Z,51.14
2023-04-29T01:13:50.810Z,51.90
2023-04-29T01:16:42.086Z,52.72
2023-04-29T01:19:44.236Z,53.05
2023-04-29T01:22:13.128Z,53.16
2023-04-29T01:24:41.676Z,53.21
2023-04-29T01:27:43.004Z,53.14
2023-04-29T01:30:27.604Z,53.26
2023-04-29T01:33:04.837Z,54.28
2023-04-29T01:35:57.150Z,55.09
2023-04-29T01:38:28.636Z,54.73
2023-04-29T01:41:02.797Z,54.19
2023-04-29T01:43:34.468Z,53.68
2023-04-29T01:46:05.171Z,53.05
2023-04-29T01:48:33.888Z,52.69
2023-04-29T01:51:02.479Z,52.44
2023-04-29T01:53:31.704Z,52.35
2023-04-29T01:56:00.697Z,52.42
2023-04-29T01:58:30.338Z,52.35
2023-04-29T02:00:59.200Z,52.84
2023-04-29T02:03:28.535Z,52.39
2023-04-29T02:05:58.672Z,52.39
2023-04-29T02:08:27.677Z,52.64
2023-04-29T02:10:58.725Z,52.84
2023-04-29T02:13:27.195Z,53.00
2023-04-29T02:15:56.329Z,52.94
2023-04-29T02:18:25.059Z,53.05
2023-04-29T02:21:00.909Z,53.20
2023-04-29T02:23:30.258Z,52.94
2023-04-29T02:25:59.804Z,52.50
2023-04-29T02:28:28.564Z,52.09
2023-04-29T02:30:57.361Z,52.37
2023-04-29T02:33:26.057Z,52.57
2023-04-29T02:35:54.868Z,52.18
2023-04-29T02:38:24.885Z,52.00
2023-04-29T02:40:53.194Z,51.93
2023-04-29T02:43:22.045Z,53.01
2023-04-29T02:45:51.330Z,55.63
2023-04-29T02:48:20.145Z,57.96
2023-04-29T02:50:49.180Z,59.20
2023-04-29T02:53:17.231Z,61.47
2023-04-29T02:55:45.872Z,62.35
2023-04-29T02:58:14.685Z,62.27
2023-04-29T03:00:43.777Z,61.80
2023-04-29T03:03:12.953Z,61.17
2023-04-29T03:05:42.682Z,61.48
2023-04-29T03:08:11.341Z,62.14
2023-04-29T03:10:41.579Z,62.60
2023-04-29T03:13:10.951Z,63.11
2023-04-29T03:15:40.003Z,63.86
2023-04-29T03:18:08.839Z,63.57
2023-04-29T03:20:37.169Z,63.98
2023-04-29T03:23:05.481Z,64.14
2023-04-29T03:25:34.911Z,64.51
2023-04-29T03:28:03.439Z,64.29
2023-04-29T03:30:31.571Z,64.35
2023-04-29T03:33:00.341Z,64.36
2023-04-29T03:35:29.289Z,64.38
2023-04-29T03:37:57.666Z,64.41
2023-04-29T03:40:26.215Z,64.42
2023-04-29T03:42:56.146Z,64.46
2023-04-29T03:45:24.260Z,64.64
2023-04-29T03:47:53.495Z,64.82
2023-04-29T03:50:24.549Z,64.92
2023-04-29T03:52:53.404Z,65.14
2023-04-29T03:55:22.613Z,65.23
2023-04-29T03:57:51.383Z,65.36
2023-04-29T04:00:19.692Z,65.42
2023-04-29T04:02:50.111Z,65.43
2023-04-29T04:05:19.052Z,65.44
2023-04-29T04:07:47.495Z,65.47
2023-04-29T04:10:16.441Z,65.50
2023-04-29T04:12:45.076Z,65.32
2023-04-29T04:15:13.885Z,65.22
2023-04-29T04:17:42.450Z,64.81
2023-04-29T04:20:12.740Z,64.49
2023-04-29T04:22:41.928Z,64.03
2023-04-29T04:25:12.264Z,63.10
2023-04-29T04:27:41.226Z,61.98
2023-04-29T04:30:10.250Z,61.06
2023-04-29T04:32:39.129Z,60.34
2023-04-29T04:35:08.798Z,59.83
2023-04-29T04:37:37.498Z,59.33
2023-04-29T04:40:09.078Z,58.92
2023-04-29T04:42:38.275Z,58.65
2023-04-29T04:45:10.614Z,58.60
2023-04-29T04:47:41.457Z,58.80
2023-04-29T04:50:11.274Z,58.66
2023-04-29T04:52:39.437Z,58.38
2023-04-29T04:55:09.390Z,58.41
2023-04-29T04:57:39.120Z,58.12
2023-04-29T05:00:09.341Z,58.17
2023-04-29T05:02:39.036Z,58.15
2023-04-29T05:05:08.326Z,58.30
2023-04-29T05:07:38.096Z,58.43
2023-04-29T05:10:07.432Z,58.81
2023-04-29T05:12:35.517Z,59.00
2023-04-29T05:15:05.355Z,59.08
2023-04-29T05:17:34.355Z,58.98
2023-04-29T05:20:03.105Z,58.91
2023-04-29T05:22:31.998Z,58.88
2023-04-29T05:25:01.557Z,58.78
2023-04-29T05:27:31.838Z,58.61
2023-04-29T05:30:00.191Z,58.38
2023-04-29T05:32:28.883Z,58.09
2023-04-29T05:34:57.609Z,57.81
2023-04-29T05:37:26.615Z,57.67
2023-04-29T05:39:55.353Z,57.45
2023-04-29T05:42:24.562Z,57.34
2023-04-29T05:44:53.164Z,57.08
2023-04-29T05:47:21.924Z,56.95
2023-04-29T05:49:51.105Z,56.60
2023-04-29T05:52:20.036Z,56.54
2023-04-29T05:54:49.842Z,56.35
2023-04-29T05:57:19.183Z,56.01
2023-04-29T05:59:49.005Z,55.93
2023-04-29T06:02:17.340Z,55.78
2023-04-29T06:04:46.937Z,55.61
2023-04-29T06:07:17.717Z,55.43
2023-04-29T06:09:47.743Z,54.71
2023-04-29T06:12:16.443Z,53.82
2023-04-29T06:14:45.112Z,53.11
2023-04-29T06:17:14.126Z,52.43
2023-04-29T06:19:43.594Z,52.29
2023-04-29T06:22:11.878Z,51.82
2023-04-29T06:24:40.112Z,51.63
2023-04-29T06:27:08.818Z,51.42
2023-04-29T06:29:37.660Z,51.49
2023-04-29T06:32:06.613Z,51.97
2023-04-29T06:34:35.177Z,52.68
2023-04-29T06:37:03.749Z,53.49
2023-04-29T06:39:32.839Z,54.41
2023-04-29T06:42:02.531Z,55.21
2023-04-29T06:44:31.629Z,55.87
2023-04-29T06:47:00.277Z,55.82
2023-04-29T06:49:28.491Z,55.44
2023-04-29T06:51:57.563Z,54.67
2023-04-29T06:54:26.425Z,53.45
2023-04-29T06:56:55.503Z,53.02
2023-04-29T06:59:24.229Z,52.13
2023-04-29T07:01:52.820Z,52.23
2023-04-29T07:04:21.682Z,51.67
2023-04-29T07:06:49.828Z,50.15
2023-04-29T07:09:18.070Z,46.76
2023-04-29T07:11:46.708Z,44.79
2023-04-29T07:14:15.258Z,42.90
2023-04-29T07:16:44.329Z,42.15
2023-04-29T07:19:13.612Z,39.75
2023-04-29T07:21:42.042Z,38.76
2023-04-29T07:24:10.493Z,37.47
2023-04-29T07:26:39.620Z,34.93
2023-04-29T07:29:08.498Z,34.03
2023-04-29T07:31:38.385Z,33.82
2023-04-29T07:34:06.805Z,34.46
2023-04-29T07:36:35.003Z,34.99
2023-04-29T07:39:03.457Z,34.73
2023-04-29T07:41:32.281Z,33.23
2023-04-29T07:44:00.414Z,32.36
2023-04-29T07:46:29.241Z,32.93
2023-04-29T07:48:57.677Z,32.58
2023-04-29T07:51:27.272Z,32.71
2023-04-29T07:53:55.934Z,32.69
2023-04-29T07:56:24.517Z,33.37
2023-04-29T07:58:53.401Z,33.21
2023-04-29T08:01:22.065Z,32.27
2023-04-29T08:03:51.054Z,30.37
2023-04-29T08:06:20.405Z,30.09
2023-04-29T08:08:49.486Z,29.69
2023-04-29T08:11:19.664Z,28.37
2023-04-29T08:13:48.286Z,27.98
2023-04-29T08:16:17.242Z,27.63
2023-04-29T08:18:46.098Z,27.41
2023-04-29T08:21:14.415Z,27.68
2023-04-29T08:23:43.108Z,27.60
2023-04-29T08:26:12.229Z,27.21
2023-04-29T08:28:40.838Z,26.70
2023-04-29T08:31:17.404Z,26.61
2023-04-29T08:33:46.496Z,26.16
2023-04-29T08:36:14.878Z,26.52
2023-04-29T08:38:43.394Z,27.14
2023-04-29T08:41:13.274Z,28.72
2023-04-29T08:43:41.885Z,29.82
2023-04-29T08:46:11.669Z,30.46
2023-04-29T08:48:42.552Z,31.33
2023-04-29T08:51:14.336Z,31.92
2023-04-29T08:53:43.042Z,33.01
2023-04-29T08:56:17.563Z,33.96
2023-04-29T08:58:46.624Z,34.71
2023-04-29T09:01:15.096Z,35.60
2023-04-29T09:03:52.310Z,36.06
2023-04-29T09:06:20.926Z,35.67
2023-04-29T09:08:49.248Z,36.19
2023-04-29T09:11:19.662Z,36.56
2023-04-29T09:13:48.659Z,36.33
2023-04-29T09:16:16.955Z,36.53
2023-04-29T09:18:47.600Z,36.86
2023-04-29T09:21:34.155Z,36.65
2023-04-29T09:24:04.032Z,36.86
2023-04-29T09:26:43.841Z,37.50
2023-04-29T09:29:14.363Z,37.92
2023-04-29T09:31:43.354Z,38.18
2023-04-29T09:34:13.929Z,37.70
2023-04-29T09:36:50.952Z,35.76
2023-04-29T09:39:21.770Z,34.02
2023-04-29T09:41:55.972Z,34.00
2023-04-29T09:44:36.048Z,33.44
2023-04-29T09:47:06.617Z,31.55
2023-04-29T09:49:44.823Z,31.17
2023-04-29T09:52:16.652Z,29.62
2023-04-29T09:54:45.313Z,30.03
2023-04-29T09:57:14.162Z,29.88
2023-04-29T09:59:42.916Z,28.80
2023-04-29T10:02:17.267Z,28.01
2023-04-29T10:04:48.643Z,27.02
2023-04-29T10:07:18.404Z,27.02
2023-04-29T10:09:48.274Z,26.66
2023-04-29T10:12:19.122Z,26.52
2023-04-29T10:15:06.215Z,26.89
2023-04-29T10:18:08.829Z,27.80
2023-04-29T10:20:39.420Z,27.92
2023-04-29T10:23:08.953Z,28.49
2023-04-29T10:25:38.177Z,28.63
2023-04-29T10:28:09.813Z,29.12
2023-04-29T10:30:40.253Z,28.90
2023-04-29T10:33:12.413Z,29.24
2023-04-29T10:35:44.061Z,29.47
2023-04-29T10:38:20.919Z,30.87
2023-04-29T10:40:50.833Z,32.73
2023-04-29T10:43:25.164Z,34.33
2023-04-29T10:46:23.442Z,35.67
2023-04-29T10:48:57.669Z,36.96
2023-04-29T10:51:33.262Z,37.30
2023-04-29T10:54:29.162Z,37.04
2023-04-29T10:56:57.917Z,37.17
2023-04-29T10:59:36.477Z,37.47
2023-04-29T11:02:05.264Z,37.11
2023-04-29T11:04:33.446Z,36.74
2023-04-29T11:07:02.274Z,36.11
2023-04-29T11:09:31.938Z,35.16
2023-04-29T11:12:08.897Z,33.63
2023-04-29T11:14:50.368Z,32.70
2023-04-29T11:17:19.849Z,32.75
2023-04-29T11:19:51.615Z,32.28
2023-04-29T11:22:20.812Z,31.81
2023-04-29T11:25:09.607Z,31.20
2023-04-29T11:27:41.047Z,31.70
2023-04-29T11:30:11.439Z,32.65
2023-04-29T11:32:42.137Z,33.94
2023-04-29T11:35:18.509Z,34.66
2023-04-29T11:37:47.948Z,35.13
2023-04-29T11:40:17.518Z,34.77
2023-04-29T11:42:48.834Z,34.70
2023-04-29T11:45:19.021Z,34.93
2023-04-29T11:47:49.365Z,35.33
2023-04-29T11:50:18.735Z,36.18
2023-04-29T11:52:48.308Z,36.04
2023-04-29T11:55:17.114Z,35.66
2023-04-29T11:57:49.698Z,36.08
2023-04-29T12:00:18.649Z,36.02
2023-04-29T12:02:47.900Z,35.91
2023-04-29T12:05:17.692Z,36.08
2023-04-29T12:07:47.170Z,35.28
2023-04-29T12:10:15.935Z,36.65
2023-04-29T12:12:44.665Z,38.15
2023-04-29T12:15:14.441Z,38.66
2023-04-29T12:17:44.354Z,39.11
2023-04-29T12:20:14.759Z,39.38
2023-04-29T12:22:42.922Z,39.57
2023-04-29T12:25:11.124Z,40.19
2023-04-29T12:27:41.417Z,40.13
2023-04-29T12:30:10.630Z,39.90
2023-04-29T12:32:39.108Z,39.89
2023-04-29T12:35:15.611Z,40.40
2023-04-29T12:37:47.681Z,40.30
2023-04-29T12:40:17.720Z,39.97
2023-04-29T12:42:46.263Z,39.35
2023-04-29T12:45:27.531Z,39.54
2023-04-29T12:48:00.984Z,40.33
2023-04-29T12:50:32.501Z,40.51
2023-04-29T12:53:02.394Z,40.17
2023-04-29T12:55:36.680Z,39.71
2023-04-29T12:58:06.034Z,39.05
2023-04-29T13:00:35.013Z,38.78
2023-04-29T13:03:04.920Z,38.39
2023-04-29T13:05:34.327Z,38.13
2023-04-29T13:08:02.969Z,37.38
2023-04-29T13:10:32.867Z,37.75
2023-04-29T13:13:01.082Z,38.87
2023-04-29T13:15:29.419Z,39.67
2023-04-29T13:17:58.304Z,40.14
2023-04-29T13:20:26.705Z,40.44
2023-04-29T13:22:56.201Z,40.62
2023-04-29T13:25:26.101Z,40.92
2023-04-29T13:27:55.189Z,41.53
2023-04-29T13:30:24.314Z,41.86
2023-04-29T13:32:55.429Z,41.18
2023-04-29T13:35:26.494Z,40.25
2023-04-29T13:37:54.742Z,40.28
2023-04-29T13:40:27.570Z,40.31
2023-04-29T13:43:04.954Z,40.19
2023-04-29T13:45:38.877Z,40.12
2023-04-29T13:48:20.920Z,39.95
2023-04-29T13:53:51.154Z,39.50
2023-04-29T14:03:51.446Z,41.76
2023-04-29T14:06:20.162Z,42.22
2023-04-29T14:08:49.903Z,42.99
2023-04-29T14:11:18.294Z,44.07
2023-04-29T14:13:46.913Z,44.95
2023-04-29T14:16:16.082Z,45.37
2023-04-29T14:18:44.307Z,46.04
2023-04-29T14:21:12.548Z,46.56
2023-04-29T14:23:41.214Z,46.69
2023-04-29T14:26:27.006Z,46.81
2023-04-29T14:28:58.322Z,47.01
2023-04-29T14:31:29.566Z,47.33
2023-04-29T14:33:58.835Z,47.09
2023-04-29T14:36:28.463Z,46.98
2023-04-29T14:38:57.035Z,46.46
2023-04-29T14:41:25.924Z,46.43
2023-04-29T14:43:55.287Z,46.36
2023-04-29T14:46:23.637Z,46.13
2023-04-29T14:48:51.805Z,46.45
2023-04-29T14:51:20.717Z,46.67
2023-04-29T14:53:48.884Z,46.87
2023-04-29T14:56:18.398Z,46.16
2023-04-29T14:58:47.364Z,45.81
2023-04-29T15:01:17.649Z,45.32
2023-04-29T15:03:47.570Z,45.22
2023-04-29T15:06:17.729Z,45.04
2023-04-29T15:08:45.838Z,44.62
2023-04-29T15:11:15.016Z,44.55
2023-04-29T15:13:43.157Z,44.21
2023-04-29T15:16:11.347Z,43.90
2023-04-29T15:18:41.022Z,43.70
2023-04-29T15:21:11.216Z,43.42
2023-04-29T15:23:40.700Z,43.50
2023-04-29T15:26:10.006Z,43.53
2023-04-29T15:28:38.397Z,43.55
2023-04-29T15:31:07.171Z,43.49
2023-04-29T15:33:36.550Z,43.50
2023-04-29T15:36:07.920Z,43.53
2023-04-29T15:38:37.567Z,43.44
2023-04-29T15:41:06.902Z,43.54
2023-04-29T15:43:36.374Z,43.48
2023-04-29T15:46:04.726Z,43.02
2023-04-29T15:48:33.876Z,43.40
2023-04-29T15:51:02.328Z,43.44
2023-04-29T15:53:31.189Z,44.02
2023-04-29T15:55:59.998Z,44.10
2023-04-29T15:58:28.474Z,44.05
2023-04-29T16:00:56.775Z,44.79
2023-04-29T16:03:26.581Z,45.28
2023-04-29T16:05:56.081Z,45.82
2023-04-29T16:08:25.270Z,46.30
2023-04-29T16:10:53.922Z,46.91
2023-04-29T16:13:22.727Z,47.40
2023-04-29T16:15:51.157Z,47.79
2023-04-29T16:18:19.858Z,48.40
2023-04-29T16:20:48.305Z,48.80
2023-04-29T16:23:17.284Z,48.78
2023-04-29T16:25:46.061Z,48.96
2023-04-29T16:28:14.548Z,48.86
2023-04-29T16:30:43.538Z,49.13
2023-04-29T16:33:12.897Z,49.18
2023-04-29T16:35:41.818Z,49.10
2023-04-29T16:38:10.926Z,48.82
2023-04-29T16:40:39.996Z,48.84
2023-04-29T16:43:09.338Z,49.69
2023-04-29T16:45:37.383Z,50.37
2023-04-29T16:48:06.614Z,50.45
2023-04-29T16:50:36.121Z,50.53
2023-04-29T16:53:04.930Z,50.67
2023-04-29T16:55:34.035Z,50.84
2023-04-29T16:58:03.834Z,50.80
2023-04-29T17:00:31.968Z,50.82
2023-04-29T17:03:00.951Z,50.71
2023-04-29T17:05:29.678Z,50.65
2023-04-29T17:07:58.441Z,50.81
2023-04-29T17:10:27.027Z,50.57
2023-04-29T17:12:55.962Z,50.16
2023-04-29T17:15:24.524Z,50.18
2023-04-29T17:17:54.229Z,50.18
2023-04-29T17:20:23.022Z,50.11
2023-04-29T17:22:51.995Z,49.77
2023-04-29T17:25:20.722Z,49.46
2023-04-29T17:27:49.953Z,49.55
2023-04-29T17:30:18.468Z,49.23
2023-04-29T17:32:47.380Z,49.18
2023-04-29T17:35:16.967Z,48.87
2023-04-29T17:37:46.435Z,49.01
2023-04-29T17:40:14.883Z,49.05
2023-04-29T17:42:43.642Z,49.05
2023-04-29T17:45:12.806Z,48.93
2023-04-29T17:47:41.100Z,49.18
2023-04-29T17:50:09.832Z,49.46
2023-04-29T17:52:38.187Z,49.63
2023-04-29T17:55:07.495Z,49.74
2023-04-29T17:57:36.827Z,49.96
2023-04-29T18:00:07.256Z,50.58
2023-04-29T18:02:36.799Z,51.12
2023-04-29T18:05:07.132Z,51.48
2023-04-29T18:07:36.214Z,51.67
2023-04-29T18:10:04.776Z,52.24
2023-04-29T18:12:33.450Z,52.63
2023-04-29T18:15:03.242Z,52.93
2023-04-29T18:17:32.252Z,53.01
2023-04-29T18:20:00.851Z,53.31
2023-04-29T18:22:30.318Z,53.73
2023-04-29T18:25:00.514Z,54.05
2023-04-29T18:27:29.717Z,54.26
2023-04-29T18:30:01.112Z,54.39
2023-04-29T18:32:29.304Z,54.69
2023-04-29T18:34:57.440Z,54.83
2023-04-29T18:37:27.158Z,54.75
2023-04-29T18:39:55.543Z,54.77
2023-04-29T18:42:25.128Z,54.72
2023-04-29T18:44:54.160Z,55.00
2023-04-29T18:47:23.827Z,54.98
2023-04-29T18:49:52.109Z,55.21
2023-04-29T18:52:20.423Z,55.34
2023-04-29T18:54:49.174Z,55.38
2023-04-29T18:57:18.098Z,55.29
2023-04-29T18:59:46.397Z,55.36
2023-04-29T19:02:15.402Z,55.17
2023-04-29T19:04:44.773Z,55.31
2023-04-29T19:07:14.956Z,55.41
2023-04-29T19:09:43.871Z,55.27
2023-04-29T19:12:12.566Z,55.15
2023-04-29T19:14:41.920Z,55.37
2023-04-29T19:17:10.682Z,55.27
2023-04-29T19:19:39.376Z,55.52
2023-04-29T19:22:07.697Z,55.57
2023-04-29T19:24:36.447Z,55.76
2023-04-29T19:27:05.682Z,55.93
2023-04-29T19:29:35.337Z,55.81
2023-04-29T19:32:04.453Z,54.80
2023-04-29T19:34:33.962Z,53.46
2023-04-29T19:37:03.801Z,52.49
2023-04-29T19:39:32.870Z,51.79
2023-04-29T19:42:02.650Z,51.53
2023-04-29T19:44:31.170Z,51.58
2023-04-29T19:46:59.450Z,51.98
2023-04-29T19:49:28.744Z,52.36
2023-04-29T19:51:57.680Z,52.18
2023-04-29T19:54:26.482Z,52.14
2023-04-29T19:56:54.681Z,52.11
2023-04-29T19:59:24.464Z,51.94
2023-04-29T20:01:53.944Z,51.55
2023-04-29T20:04:23.142Z,51.21
2023-04-29T20:06:52.264Z,51.05
2023-04-29T20:09:20.882Z,50.74
2023-04-29T20:11:49.417Z,50.53
2023-04-29T20:14:17.713Z,50.05
2023-04-29T20:16:46.986Z,49.68
2023-04-29T20:19:15.586Z,49.36
2023-04-29T20:21:44.467Z,49.27
2023-04-29T20:24:12.748Z,49.00
2023-04-29T20:26:40.910Z,48.50
2023-04-29T20:29:09.826Z,48.38
2023-04-29T20:31:38.672Z,48.35
2023-04-29T20:34:06.780Z,48.53
2023-04-29T20:36:35.509Z,48.50
2023-04-29T20:39:04.554Z,48.33
2023-04-29T20:41:33.079Z,48.24
2023-04-29T20:44:01.885Z,48.24
2023-04-29T20:46:31.807Z,48.13
2023-04-29T20:49:01.620Z,48.12
2023-04-29T20:51:30.153Z,48.07
2023-04-29T20:53:59.585Z,48.11
2023-04-29T20:56:28.253Z,48.11
2023-04-29T20:58:57.163Z,48.22
2023-04-29T21:01:26.063Z,48.51
2023-04-29T21:03:55.785Z,48.53
2023-04-29T21:06:28.153Z,48.60
2023-04-29T21:08:56.391Z,48.60
2023-04-29T21:11:25.091Z,48.67
2023-04-29T21:13:53.301Z,48.85
2023-04-29T21:16:21.437Z,48.88
2023-04-29T21:18:50.009Z,48.81
2023-04-29T21:21:18.616Z,48.93
2023-04-29T21:23:47.380Z,48.72
2023-04-29T21:26:16.412Z,48.54
2023-04-29T21:28:44.631Z,48.63
2023-04-29T21:31:13.373Z,49.00
2023-04-29T21:33:45.865Z,49.33
2023-04-29T21:36:14.633Z,49.56
2023-04-29T21:38:42.991Z,49.85
2023-04-29T21:41:23.686Z,50.34
2023-04-29T21:43:52.114Z,50.69
2023-04-29T21:46:20.974Z,50.96
2023-04-29T21:48:49.635Z,50.93
2023-04-29T21:51:18.578Z,51.20
2023-04-29T21:53:47.203Z,51.42
2023-04-29T21:56:15.613Z,52.03
2023-04-29T21:58:44.602Z,53.05
2023-04-29T22:01:12.898Z,54.77
2023-04-29T22:03:42.113Z,55.64
2023-04-29T22:06:10.261Z,56.67
2023-04-29T22:08:39.218Z,57.48
2023-04-29T22:11:07.573Z,58.36
2023-04-29T22:13:36.476Z,58.80
2023-04-29T22:16:05.365Z,59.36
2023-04-29T22:18:35.160Z,59.83
2023-04-29T22:21:05.525Z,60.24
2023-04-29T22:23:36.119Z,60.46
2023-04-29T22:26:05.501Z,60.66
2023-04-29T22:28:35.023Z,60.86
2023-04-29T22:31:03.706Z,61.61
2023-04-29T22:33:32.015Z,62.38
2023-04-29T22:36:00.246Z,62.65
2023-04-29T22:38:28.657Z,62.89
2023-04-29T22:40:57.786Z,62.92
2023-04-29T22:43:25.997Z,62.83
2023-04-29T22:45:55.330Z,62.73
2023-04-29T22:48:26.642Z,62.59
2023-04-29T22:50:58.935Z,62.66
2023-04-29T22:53:28.647Z,62.52
2023-04-29T22:55:59.711Z,62.40
2023-04-29T22:58:27.852Z,62.38
2023-04-29T23:00:57.382Z,62.27
2023-04-29T23:03:27.706Z,62.27
2023-04-29T23:06:00.746Z,62.08
2023-04-29T23:08:29.863Z,61.98
2023-04-29T23:10:58.289Z,61.90
2023-04-29T23:13:27.156Z,61.84
2023-04-29T23:15:56.438Z,61.74
2023-04-29T23:18:25.668Z,61.79
2023-04-29T23:20:53.951Z,61.61
2023-04-29T23:23:23.214Z,61.54
2023-04-29T23:25:51.681Z,61.46
2023-04-29T23:28:20.690Z,61.47
2023-04-29T23:30:49.028Z,61.29
2023-04-29T23:33:17.688Z,61.27
2023-04-29T23:35:53.318Z,61.13
2023-04-29T23:38:21.862Z,61.03
2023-04-29T23:40:50.955Z,60.90
2023-04-29T23:43:23.202Z,60.77
2023-04-29T23:45:51.391Z,60.76
2023-04-29T23:48:20.628Z,60.63
2023-04-29T23:50:49.419Z,60.56
2023-04-29T23:53:17.969Z,60.60
2023-04-29T23:55:46.087Z,60.46
2023-04-29T23:58:14.556Z,60.43
